Time;durP1;ratioP1;P1;durP2;ratioP2;P2;SDS_P1;SDS_P2;PMS_P1;PMS_P2;Temp;Humidity;BMP_temperature;BMP_pressure;BME280_temperature;BME280_humidity;BME280_pressure;Samples;Min_cycle;Max_cycle;Signal;HPM_P1;HPM_P2
2022/01/10 00:00:32;;;;;;;16.58;11.23;;;4.10;90.60;;;;;;5048442;28;20481;-57
2022/01/10 00:02:59;;;;;;;17.58;11.30;;;4.10;90.70;;;;;;5055900;28;20029;-57
2022/01/10 00:05:25;;;;;;;18.48;12.15;;;4.10;90.60;;;;;;5055830;28;20029;-57
2022/01/10 00:07:50;;;;;;;19.23;12.48;;;4.10;90.60;;;;;;5055887;28;20048;-58
2022/01/10 00:10:17;;;;;;;17.95;11.85;;;4.10;90.70;;;;;;5040539;28;20461;-56
2022/01/10 00:12:43;;;;;;;19.55;11.77;;;4.10;90.80;;;;;;5039878;28;20175;-57
2022/01/10 00:15:09;;;;;;;17.95;11.65;;;4.10;90.50;;;;;;5054555;28;20024;-55
2022/01/10 00:17:38;;;;;;;18.42;11.80;;;4.10;90.40;;;;;;5053911;28;20046;-59
2022/01/10 00:20:07;;;;;;;19.90;13.02;;;4.00;90.50;;;;;;5055700;28;20031;-58
2022/01/10 00:22:34;;;;;;;22.02;13.40;;;4.00;90.60;;;;;;5058842;28;20513;-59
2022/01/10 00:25:00;;;;;;;18.98;12.93;;;4.00;90.80;;;;;;5042212;28;20438;-59
2022/01/10 00:27:26;;;;;;;19.25;13.38;;;4.00;90.90;;;;;;5050287;28;20052;-58
2022/01/10 00:29:51;;;;;;;19.95;12.20;;;4.10;90.90;;;;;;5038613;28;20231;-57
2022/01/10 00:32:17;;;;;;;20.90;13.55;;;4.10;90.70;;;;;;5049166;28;20025;-59
2022/01/10 00:34:43;;;;;;;19.10;12.50;;;4.10;90.70;;;;;;5054698;28;20025;-58
2022/01/10 00:37:09;;;;;;;20.13;12.90;;;4.10;90.70;;;;;;5053835;28;20079;-59
2022/01/10 00:39:36;;;;;;;21.90;14.48;;;4.10;90.70;;;;;;5055120;28;20029;-57
2022/01/10 00:42:02;;;;;;;18.85;13.45;;;4.10;90.80;;;;;;5054054;28;20477;-58
2022/01/10 00:44:31;;;;;;;21.88;13.63;;;4.10;90.80;;;;;;5054566;28;20029;-57
2022/01/10 00:46:56;;;;;;;21.13;12.55;;;4.10;90.80;;;;;;5055231;28;20021;-57
2022/01/10 00:49:22;;;;;;;17.52;11.68;;;4.20;90.70;;;;;;5054898;28;20496;-56
2022/01/10 00:51:48;;;;;;;18.20;12.45;;;4.20;90.50;;;;;;5051062;28;20021;-54
2022/01/10 00:54:14;;;;;;;20.83;12.55;;;4.10;90.40;;;;;;5044695;28;20041;-57
2022/01/10 00:56:40;;;;;;;19.50;13.18;;;4.10;90.40;;;;;;5054832;28;20016;-58
2022/01/10 00:59:05;;;;;;;20.02;13.98;;;4.10;90.50;;;;;;5053986;28;20033;-59
2022/01/10 01:01:31;;;;;;;23.35;15.45;;;4.10;90.70;;;;;;5044163;28;20093;-58
2022/01/10 01:03:57;;;;;;;21.85;14.18;;;4.10;90.90;;;;;;5040525;28;20040;-58
2022/01/10 01:06:22;;;;;;;20.95;14.13;;;4.20;91.00;;;;;;5050218;28;20079;-57
2022/01/10 01:08:48;;;;;;;24.98;14.57;;;4.20;90.90;;;;;;5045917;28;20102;-56
2022/01/10 01:14:07;;;;;;;22.55;15.00;;;4.20;91.10;;;;;;5033555;28;20038;-58
2022/01/10 01:24:16;;;;;;;20.52;13.75;;;4.40;91.20;;;;;;5049773;28;20511;-56
2022/01/10 01:26:47;;;;;;;19.95;13.02;;;4.40;91.20;;;;;;5046637;28;20096;-59
2022/01/10 01:29:18;;;;;;;18.88;13.32;;;4.40;91.50;;;;;;5040144;28;20167;-57
2022/01/10 01:31:44;;;;;;;;;;;4.40;91.20;;;;;;5048046;28;20381;-57
2022/01/10 01:34:11;;;;;;;21.38;12.93;;;4.30;91.00;;;;;;5039768;28;19908;-58
2022/01/10 01:36:37;;;;;;;22.67;15.05;;;4.40;91.40;;;;;;5045986;28;20021;-58
2022/01/10 01:39:11;;;;;;;20.35;13.15;;;4.40;91.30;;;;;;5053950;28;20069;-58
2022/01/10 01:41:40;;;;;;;21.02;14.15;;;4.40;91.20;;;;;;5051746;28;20094;-56
2022/01/10 01:44:06;;;;;;;18.60;12.48;;;4.50;91.20;;;;;;5054108;28;20060;-57
2022/01/10 01:46:36;;;;;;;18.05;12.48;;;4.50;91.10;;;;;;5053791;28;20029;-57
2022/01/10 01:49:04;;;;;;;18.80;12.75;;;4.50;91.00;;;;;;5048546;28;20381;-57
2022/01/10 01:51:30;;;;;;;19.33;12.70;;;4.50;90.90;;;;;;5050685;28;20021;-56
2022/01/10 01:53:56;;;;;;;18.15;12.10;;;4.50;90.80;;;;;;5046717;28;20071;-58
2022/01/10 01:56:22;;;;;;;18.70;13.30;;;4.50;90.90;;;;;;5044475;28;20021;-57
2022/01/10 01:58:48;;;;;;;20.40;13.75;;;4.50;90.80;;;;;;5048553;28;20064;-57
2022/01/10 02:01:18;;;;;;;16.73;11.90;;;4.50;90.70;;;;;;5053988;28;20473;-58
2022/01/10 02:03:45;;;;;;;21.58;13.88;;;4.50;90.40;;;;;;5053806;28;20469;-57
2022/01/10 02:06:11;;;;;;;22.83;15.48;;;4.50;90.30;;;;;;5042941;28;20021;-58
2022/01/10 02:08:39;;;;;;;18.80;13.32;;;4.50;90.30;;;;;;5045828;28;20025;-58
2022/01/10 02:11:10;;;;;;;23.17;14.90;;;4.50;90.50;;;;;;5047276;28;20473;-58
2022/01/10 02:13:36;;;;;;;21.02;14.15;;;4.60;90.50;;;;;;5046404;28;20033;-54
2022/01/10 02:16:05;;;;;;;23.38;15.82;;;4.60;90.60;;;;;;5052534;28;20040;-57
2022/01/10 02:18:32;;;;;;;20.60;14.82;;;4.60;90.70;;;;;;5049714;28;20029;-57
2022/01/10 02:21:00;;;;;;;32.03;20.75;;;4.60;90.70;;;;;;5053259;28;20045;-57
2022/01/10 02:23:27;;;;;;;31.38;20.50;;;4.60;90.70;;;;;;5052631;28;20060;-59
2022/01/10 02:25:52;;;;;;;28.40;19.52;;;4.60;90.70;;;;;;5046974;28;20505;-56
2022/01/10 02:28:18;;;;;;;27.55;19.85;;;4.60;90.90;;;;;;5049236;28;20118;-58
2022/01/10 02:30:44;;;;;;;30.58;22.25;;;4.60;90.60;;;;;;5038733;28;20036;-59
2022/01/10 02:33:10;;;;;;;27.85;18.05;;;4.60;90.70;;;;;;5053062;28;20025;-59
2022/01/10 02:35:46;;;;;;;27.60;19.10;;;4.60;90.60;;;;;;5053059;28;20021;-57
2022/01/10 02:38:12;;;;;;;24.80;17.25;;;4.60;90.50;;;;;;5053109;28;20048;-58
2022/01/10 02:40:38;;;;;;;24.98;17.73;;;4.60;90.60;;;;;;5048353;28;20029;-57
2022/01/10 02:43:07;;;;;;;22.52;16.75;;;4.60;90.50;;;;;;5035532;28;20026;-58
2022/01/10 02:45:33;;;;;;;25.05;18.33;;;4.60;90.50;;;;;;5045840;28;20025;-56
2022/01/10 02:47:59;;;;;;;27.83;19.33;;;4.60;90.50;;;;;;5051977;28;20064;-58
2022/01/10 02:50:25;;;;;;;27.35;19.83;;;4.60;90.30;;;;;;5052981;28;20078;-59
2022/01/10 02:52:51;;;;;;;26.33;19.08;;;4.60;90.40;;;;;;5052918;28;20018;-58
2022/01/10 02:55:17;;;;;;;28.67;20.58;;;4.70;90.40;;;;;;5053052;28;20024;-58
2022/01/10 02:57:43;;;;;;;27.20;18.88;;;4.70;90.50;;;;;;5052341;28;20025;-54
2022/01/10 03:00:11;;;;;;;26.70;19.92;;;4.70;90.40;;;;;;5055499;28;20036;-57
2022/01/10 03:02:37;;;;;;;27.50;20.23;;;4.70;90.40;;;;;;5052232;28;20061;-55
2022/01/10 03:05:05;;;;;;;24.75;18.95;;;4.70;90.70;;;;;;5057010;28;20068;-57
2022/01/10 03:07:31;;;;;;;28.42;20.33;;;4.60;90.50;;;;;;5056896;28;20033;-58
2022/01/10 03:09:57;;;;;;;27.95;20.02;;;4.60;90.50;;;;;;5057156;28;20068;-59
2022/01/10 03:12:23;;;;;;;25.60;19.25;;;4.60;90.50;;;;;;5042729;28;20432;-55
2022/01/10 03:14:49;;;;;;;27.17;18.98;;;4.60;90.40;;;;;;5039011;28;20096;-58
2022/01/10 03:17:15;;;;;;;21.35;16.73;;;4.60;90.40;;;;;;5046860;28;20104;-56
2022/01/10 03:19:42;;;;;;;24.92;18.23;;;4.60;90.40;;;;;;5053142;28;20116;-58
2022/01/10 03:22:09;;;;;;;22.45;16.60;;;4.50;90.50;;;;;;5056456;28;20045;-58
2022/01/10 03:24:35;;;;;;;20.30;14.90;;;4.50;90.50;;;;;;5056898;28;20387;-59
2022/01/10 03:27:01;;;;;;;21.63;15.57;;;4.50;90.50;;;;;;5056589;28;20465;-58
2022/01/10 03:29:27;;;;;;;24.55;16.65;;;4.50;90.50;;;;;;5055739;28;20540;-56
2022/01/10 03:31:53;;;;;;;24.65;17.90;;;4.40;90.50;;;;;;5044144;28;20104;-57
2022/01/10 03:34:19;;;;;;;21.98;15.18;;;4.40;90.50;;;;;;5054066;28;20029;-58
2022/01/10 03:36:45;;;;;;;19.48;13.50;;;4.40;90.60;;;;;;5053760;28;20150;-56
2022/01/10 03:39:14;;;;;;;14.68;11.90;;;4.40;90.60;;;;;;5055598;28;20064;-57
2022/01/10 03:41:41;;;;;;;15.85;12.00;;;4.30;90.50;;;;;;5056262;28;20025;-57
2022/01/10 03:44:07;;;;;;;15.75;12.25;;;4.30;90.50;;;;;;5056278;28;20033;-58
2022/01/10 03:46:34;;;;;;;15.30;10.55;;;4.30;90.60;;;;;;5047627;28;20029;-58
2022/01/10 03:49:04;;;;;;;15.73;11.10;;;4.30;90.60;;;;;;5037687;28;20100;-59
2022/01/10 03:51:30;;;;;;;14.32;11.32;;;4.30;90.60;;;;;;5045794;28;20083;-59
2022/01/10 03:53:56;;;;;;;13.25;10.35;;;4.30;90.70;;;;;;5048681;28;20469;-56
2022/01/10 03:56:24;;;;;;;12.98;10.75;;;4.30;90.60;;;;;;5055998;28;20025;-57
2022/01/10 03:58:50;;;;;;;12.23;10.20;;;4.30;90.70;;;;;;5056034;28;20037;-57
2022/01/10 04:01:16;;;;;;;12.32;10.13;;;4.30;90.60;;;;;;5054841;28;20359;-59
2022/01/10 04:03:41;;;;;;;13.50;10.13;;;4.30;90.70;;;;;;5055799;28;20021;-57
2022/01/10 04:06:08;;;;;;;12.02;9.98;;;4.30;90.60;;;;;;5055764;28;20021;-57
2022/01/10 04:08:34;;;;;;;12.07;10.02;;;4.30;90.60;;;;;;5054328;28;20017;-55
2022/01/10 04:11:00;;;;;;;12.80;10.45;;;4.30;90.60;;;;;;5035970;28;20481;-58
2022/01/10 04:13:26;;;;;;;13.25;10.55;;;4.30;90.60;;;;;;5052782;28;20036;-57
2022/01/10 04:15:52;;;;;;;14.73;11.80;;;4.30;90.50;;;;;;5055728;28;20025;-57
2022/01/10 04:18:18;;;;;;;13.30;11.23;;;4.30;90.40;;;;;;5054845;28;20025;-57
2022/01/10 04:20:45;;;;;;;14.27;10.57;;;4.30;90.40;;;;;;5051595;28;20060;-59
2022/01/10 04:23:13;;;;;;;14.70;10.90;;;4.30;90.40;;;;;;5051578;28;20037;-59
2022/01/10 04:25:39;;;;;;;15.02;10.98;;;4.30;90.40;;;;;;5051837;28;20036;-59
2022/01/10 04:28:05;;;;;;;15.48;11.75;;;4.20;90.40;;;;;;5053272;28;20025;-57
2022/01/10 04:30:31;;;;;;;14.77;10.60;;;4.30;90.30;;;;;;5055626;28;20028;-58
2022/01/10 04:32:58;;;;;;;16.20;12.98;;;4.20;90.30;;;;;;5054770;28;20057;-59
2022/01/10 04:35:25;;;;;;;14.05;11.65;;;4.20;90.30;;;;;;5055338;28;20017;-59
2022/01/10 04:37:50;;;;;;;16.92;12.57;;;4.20;90.30;;;;;;5055247;28;20497;-58
2022/01/10 04:40:16;;;;;;;16.42;13.20;;;4.20;90.30;;;;;;5052406;28;20020;-58
2022/01/10 04:42:42;;;;;;;15.98;12.10;;;4.10;90.40;;;;;;5048964;28;20043;-56
2022/01/10 04:45:08;;;;;;;17.73;13.20;;;4.10;90.40;;;;;;5052456;28;20377;-57
2022/01/10 04:47:34;;;;;;;17.90;13.50;;;4.10;90.40;;;;;;5055016;28;20488;-56
2022/01/10 04:50:04;;;;;;;15.02;11.93;;;4.10;90.40;;;;;;5044498;28;20078;-59
2022/01/10 04:52:31;;;;;;;15.93;12.43;;;4.10;90.40;;;;;;5047263;28;20099;-58
2022/01/10 04:54:58;;;;;;;17.02;12.93;;;4.10;90.40;;;;;;5054941;28;20112;-56
2022/01/10 04:57:24;;;;;;;19.63;14.20;;;4.10;90.40;;;;;;5054909;28;20163;-56
2022/01/10 04:59:50;;;;;;;17.55;13.57;;;4.10;90.50;;;;;;5042017;28;20074;-59
2022/01/10 05:02:16;;;;;;;19.98;15.07;;;4.00;90.50;;;;;;5047539;28;20036;-59
2022/01/10 05:04:41;;;;;;;17.25;13.75;;;4.00;90.50;;;;;;5054994;28;20029;-58
2022/01/10 05:07:07;;;;;;;15.48;12.38;;;4.00;90.50;;;;;;5054702;28;20017;-60
2022/01/10 05:09:33;;;;;;;18.05;14.05;;;4.00;90.50;;;;;;5053664;28;20109;-59
2022/01/10 05:11:59;;;;;;;16.08;13.30;;;4.00;90.50;;;;;;5037359;28;20065;-58
2022/01/10 05:14:25;;;;;;;16.20;11.52;;;4.00;90.60;;;;;;5039830;28;20053;-59
2022/01/10 05:16:50;;;;;;;18.23;13.68;;;4.00;90.50;;;;;;5040780;28;20036;-57
2022/01/10 05:19:16;;;;;;;17.70;13.63;;;4.00;90.40;;;;;;5046264;28;20037;-57
2022/01/10 05:21:42;;;;;;;20.45;13.50;;;4.00;90.40;;;;;;5041154;28;20500;-59
2022/01/10 05:24:07;;;;;;;17.10;13.32;;;4.00;90.40;;;;;;5053357;28;20033;-58
2022/01/10 05:26:34;;;;;;;16.27;12.38;;;4.00;90.40;;;;;;5040745;28;20474;-57
2022/01/10 05:29:01;;;;;;;17.13;13.77;;;4.00;90.40;;;;;;5053913;28;20028;-59
2022/01/10 05:31:28;;;;;;;17.02;12.43;;;4.00;90.40;;;;;;5038503;28;20030;-59
2022/01/10 05:33:55;;;;;;;17.13;12.77;;;4.00;90.40;;;;;;5036197;28;20079;-58
2022/01/10 05:36:21;;;;;;;16.95;12.38;;;4.00;90.40;;;;;;5053760;28;20084;-59
2022/01/10 05:38:47;;;;;;;18.90;12.82;;;4.00;90.40;;;;;;5046743;28;20039;-58
2022/01/10 05:41:13;;;;;;;18.95;13.52;;;4.00;90.40;;;;;;5051951;28;20032;-59
2022/01/10 05:43:38;;;;;;;16.30;13.32;;;3.90;90.40;;;;;;5041317;28;20029;-59
2022/01/10 05:46:08;;;;;;;15.15;11.43;;;3.90;90.40;;;;;;5052743;28;20028;-58
2022/01/10 05:48:35;;;;;;;17.13;13.60;;;4.00;90.40;;;;;;5052376;28;20029;-58
2022/01/10 05:51:02;;;;;;;15.10;12.25;;;4.00;90.50;;;;;;5038800;28;20025;-59
2022/01/10 05:53:28;;;;;;;19.20;14.05;;;4.00;90.40;;;;;;5047987;28;20100;-58
2022/01/10 05:55:54;;;;;;;18.40;13.23;;;4.00;90.40;;;;;;5041168;28;20109;-57
2022/01/10 05:58:20;;;;;;;17.15;12.85;;;4.00;90.30;;;;;;5051304;28;20108;-58
2022/01/10 06:00:47;;;;;;;17.58;12.68;;;4.00;90.30;;;;;;5050846;28;20111;-59
2022/01/10 06:03:12;;;;;;;16.58;12.15;;;4.00;90.20;;;;;;5051273;28;20025;-59
2022/01/10 06:05:38;;;;;;;16.63;12.73;;;4.00;90.20;;;;;;5050415;28;20124;-57
2022/01/10 06:08:06;;;;;;;17.38;12.38;;;4.00;90.20;;;;;;5050108;28;20029;-58
2022/01/10 06:10:32;;;;;;;17.13;12.55;;;4.00;90.20;;;;;;5055806;28;20499;-59
2022/01/10 06:12:59;;;;;;;17.08;13.35;;;4.00;90.20;;;;;;5054844;28;20039;-58
2022/01/10 06:15:25;;;;;;;17.00;12.05;;;4.00;90.10;;;;;;5054476;28;20021;-58
2022/01/10 06:17:51;;;;;;;16.33;11.55;;;4.00;90.10;;;;;;5048626;28;20351;-58
2022/01/10 06:20:17;;;;;;;15.40;12.18;;;4.00;90.10;;;;;;5048246;28;20025;-58
2022/01/10 06:22:43;;;;;;;16.95;12.82;;;4.00;90.00;;;;;;5045310;28;20026;-55
2022/01/10 06:25:13;;;;;;;14.68;11.50;;;4.00;89.90;;;;;;5051301;28;20025;-58
2022/01/10 06:27:39;;;;;;;15.63;11.25;;;3.90;89.70;;;;;;5047113;28;20033;-59
2022/01/10 06:30:07;;;;;;;18.60;12.63;;;3.90;89.60;;;;;;5053156;28;20372;-58
2022/01/10 06:32:32;;;;;;;15.65;12.02;;;3.90;89.60;;;;;;5039813;28;20033;-59
2022/01/10 06:34:58;;;;;;;19.20;13.45;;;3.90;89.60;;;;;;5034538;28;20390;-60
2022/01/10 06:37:25;;;;;;;19.98;13.02;;;3.90;89.50;;;;;;5043800;28;20107;-59
2022/01/10 06:39:51;;;;;;;17.08;12.23;;;3.90;89.40;;;;;;5036584;28;20025;-59
2022/01/10 06:42:17;;;;;;;18.45;13.55;;;3.90;89.30;;;;;;5045122;28;20416;-60
2022/01/10 06:44:43;;;;;;;19.08;13.27;;;3.90;89.10;;;;;;5037290;28;20025;-55
2022/01/10 06:47:08;;;;;;;20.58;14.70;;;3.90;88.90;;;;;;5041883;28;20477;-59
2022/01/10 06:49:34;;;;;;;18.60;13.55;;;3.80;88.70;;;;;;5041780;28;20017;-57
2022/01/10 06:52:00;;;;;;;20.98;14.43;;;3.80;88.90;;;;;;5036482;28;20029;-55
2022/01/10 06:54:26;;;;;;;21.17;14.65;;;3.80;89.00;;;;;;5042783;28;20021;-57
2022/01/10 06:56:52;;;;;;;23.33;16.35;;;3.80;89.10;;;;;;5029569;28;20037;-59
2022/01/10 06:59:19;;;;;;;22.88;15.98;;;3.80;89.00;;;;;;5029220;28;20174;-58
2022/01/10 07:01:45;;;;;;;22.73;16.10;;;3.80;89.10;;;;;;5031756;28;20028;-59
2022/01/10 07:04:12;;;;;;;24.15;16.88;;;3.80;89.30;;;;;;5035396;28;20480;-57
2022/01/10 07:06:40;;;;;;;20.48;15.10;;;3.80;89.40;;;;;;5033938;28;20123;-56
2022/01/10 07:09:07;;;;;;;25.67;17.20;;;3.80;89.60;;;;;;5030792;28;20817;-58
2022/01/10 07:11:33;;;;;;;26.05;17.23;;;3.80;89.50;;;;;;5026235;28;20051;-59
2022/01/10 07:13:59;;;;;;;24.52;16.52;;;3.90;89.30;;;;;;5024669;28;20156;-58
2022/01/10 07:16:25;;;;;;;26.63;17.42;;;3.80;89.00;;;;;;5022684;28;20360;-58
2022/01/10 07:18:51;;;;;;;32.03;19.45;;;3.80;89.20;;;;;;5020026;28;20082;-61
2022/01/10 07:21:17;;;;;;;29.30;19.80;;;3.80;89.20;;;;;;5026744;28;20612;-57
2022/01/10 07:23:42;;;;;;;27.85;18.67;;;3.80;89.10;;;;;;5022906;28;20404;-59
2022/01/10 07:26:08;;;;;;;25.25;16.90;;;3.80;88.90;;;;;;5015769;28;20033;-58
2022/01/10 07:28:34;;;;;;;27.33;18.02;;;3.80;89.00;;;;;;5018280;28;20088;-59
2022/01/10 07:31:00;;;;;;;27.60;17.45;;;3.80;89.00;;;;;;5026278;28;21341;-61
2022/01/10 07:33:25;;;;;;;24.27;16.17;;;3.80;89.40;;;;;;5021127;28;20124;-61
2022/01/10 07:35:51;;;;;;;20.95;14.55;;;3.80;88.80;;;;;;5020658;28;20033;-59
2022/01/10 07:38:17;;;;;;;21.65;14.05;;;3.80;88.50;;;;;;5022724;28;20034;-59
2022/01/10 07:40:42;;;;;;;19.55;12.88;;;3.80;88.30;;;;;;5034406;28;20658;-60
2022/01/10 07:43:08;;;;;;;21.55;14.65;;;3.80;88.10;;;;;;5025375;28;20378;-60
2022/01/10 07:45:34;;;;;;;19.42;13.82;;;3.80;88.00;;;;;;5031041;28;20646;-60
2022/01/10 07:48:00;;;;;;;24.23;15.13;;;3.80;87.70;;;;;;5028649;28;20030;-57
2022/01/10 07:50:26;;;;;;;24.08;15.52;;;3.80;87.50;;;;;;5032886;28;20100;-58
2022/01/10 07:52:51;;;;;;;21.52;14.05;;;3.80;87.20;;;;;;5032317;28;20075;-60
2022/01/10 07:55:17;;;;;;;20.70;14.45;;;3.80;87.70;;;;;;5034107;28;20036;-59
2022/01/10 07:57:43;;;;;;;21.55;13.77;;;3.80;87.30;;;;;;5028197;28;20036;-59
2022/01/10 08:00:09;;;;;;;20.17;12.77;;;3.80;87.20;;;;;;5028882;28;20028;-60
2022/01/10 08:02:35;;;;;;;21.15;14.57;;;3.80;86.90;;;;;;5029696;28;20039;-60
2022/01/10 08:05:00;;;;;;;22.25;14.48;;;3.80;86.70;;;;;;5031128;28;20627;-59
2022/01/10 08:07:26;;;;;;;20.88;13.68;;;3.80;86.70;;;;;;5033674;28;20044;-60
2022/01/10 08:09:51;;;;;;;22.05;14.50;;;3.80;86.70;;;;;;5040398;28;20476;-59
2022/01/10 08:12:17;;;;;;;21.55;14.25;;;3.70;86.50;;;;;;5027016;28;20029;-59
2022/01/10 08:14:43;;;;;;;22.67;15.05;;;3.70;86.40;;;;;;5028524;28;20044;-60
2022/01/10 08:17:08;;;;;;;23.55;15.63;;;3.60;86.40;;;;;;5024443;28;20026;-59
2022/01/10 08:19:34;;;;;;;22.13;14.80;;;3.70;86.50;;;;;;5029671;28;20033;-57
2022/01/10 08:22:01;;;;;;;20.48;14.75;;;3.60;86.60;;;;;;5027912;28;20088;-59
2022/01/10 08:24:27;;;;;;;18.83;12.77;;;3.60;86.80;;;;;;5029764;28;20029;-58
2022/01/10 08:26:55;;;;;;;21.92;14.55;;;3.60;86.80;;;;;;5027128;28;20025;-59
2022/01/10 08:29:21;;;;;;;18.65;14.05;;;3.60;86.60;;;;;;5024159;28;20032;-59
2022/01/10 08:31:47;;;;;;;19.52;12.57;;;3.60;86.40;;;;;;5021387;28;20036;-60
2022/01/10 08:34:13;;;;;;;17.92;12.40;;;3.60;86.60;;;;;;5018164;28;20043;-60
2022/01/10 08:36:39;;;;;;;17.20;11.82;;;3.60;86.30;;;;;;5023527;28;20044;-60
2022/01/10 08:39:07;;;;;;;15.90;11.57;;;3.60;86.20;;;;;;5022742;28;20032;-61
2022/01/10 08:41:34;;;;;;;19.40;11.38;;;3.60;86.00;;;;;;5030988;28;20434;-60
2022/01/10 08:44:00;;;;;;;14.57;10.23;;;3.60;86.00;;;;;;5026809;28;20045;-59
2022/01/10 08:46:26;;;;;;;15.73;10.85;;;3.60;85.70;;;;;;5024234;28;20037;-59
2022/01/10 08:48:52;;;;;;;14.60;10.48;;;3.60;85.70;;;;;;5025754;28;20056;-58
2022/01/10 08:51:18;;;;;;;12.13;9.07;;;3.60;85.50;;;;;;5025912;28;20107;-58
2022/01/10 08:53:44;;;;;;;13.77;9.57;;;3.60;85.50;;;;;;5035437;28;20078;-60
2022/01/10 08:56:10;;;;;;;14.00;9.25;;;3.60;85.30;;;;;;5027512;28;20029;-60
2022/01/10 08:58:35;;;;;;;17.05;11.90;;;3.60;85.20;;;;;;5030310;28;20064;-60
2022/01/10 09:01:06;;;;;;;17.90;11.57;;;3.60;85.30;;;;;;5023964;28;20095;-60
2022/01/10 09:03:33;;;;;;;17.48;12.65;;;3.60;85.10;;;;;;5030357;28;20037;-58
2022/01/10 09:05:59;;;;;;;19.33;13.05;;;3.60;85.30;;;;;;5028843;28;20034;-59
2022/01/10 09:08:35;;;;;;;17.02;13.13;;;3.60;85.20;;;;;;5028285;28;20036;-60
2022/01/10 09:11:02;;;;;;;16.63;12.57;;;3.60;85.20;;;;;;5028874;28;20033;-60
2022/01/10 09:13:28;;;;;;;17.02;11.40;;;3.60;85.30;;;;;;5024265;28;20124;-61
2022/01/10 09:15:54;;;;;;;17.58;12.18;;;3.60;85.30;;;;;;5029636;28;20128;-60
2022/01/10 09:18:20;;;;;;;17.58;13.18;;;3.60;85.50;;;;;;5028323;28;20479;-60
2022/01/10 09:20:46;;;;;;;15.68;11.43;;;3.60;85.30;;;;;;5018808;28;20056;-60
2022/01/10 09:23:13;;;;;;;17.40;12.13;;;3.70;85.30;;;;;;5026051;28;20484;-61
2022/01/10 09:25:39;;;;;;;16.92;12.10;;;3.70;85.10;;;;;;5025883;28;20037;-59
2022/01/10 09:28:05;;;;;;;18.70;11.20;;;3.70;84.90;;;;;;5027976;28;20029;-60
2022/01/10 09:30:31;;;;;;;16.65;11.23;;;3.70;84.80;;;;;;5022234;28;20029;-60
2022/01/10 09:32:57;;;;;;;13.32;9.23;;;3.60;84.70;;;;;;5026788;28;20025;-60
2022/01/10 09:35:23;;;;;;;12.98;9.65;;;3.70;84.70;;;;;;5026777;28;20033;-60
2022/01/10 09:37:49;;;;;;;11.35;8.45;;;3.60;84.60;;;;;;5024875;28;20680;-61
2022/01/10 09:40:16;;;;;;;12.80;8.75;;;3.70;84.30;;;;;;5016860;28;20095;-58
2022/01/10 09:42:42;;;;;;;11.82;8.77;;;3.70;83.90;;;;;;5024419;28;20033;-58
2022/01/10 09:45:08;;;;;;;11.85;8.77;;;3.70;83.90;;;;;;5029790;28;20108;-58
2022/01/10 09:47:34;;;;;;;10.93;8.13;;;3.70;84.50;;;;;;5024301;28;20029;-59
2022/01/10 09:50:00;;;;;;;11.30;8.85;;;3.70;83.80;;;;;;5024756;28;20037;-59
2022/01/10 09:52:27;;;;;;;13.07;9.85;;;3.70;83.60;;;;;;5021294;28;20028;-59
2022/01/10 09:54:53;;;;;;;13.25;9.48;;;3.80;83.80;;;;;;5009361;28;20074;-60
2022/01/10 09:57:20;;;;;;;12.23;8.80;;;3.80;83.60;;;;;;5011854;28;20028;-60
2022/01/10 09:59:47;;;;;;;13.20;9.82;;;3.70;83.50;;;;;;5029568;28;20080;-60
2022/01/10 10:12:28;;;;;;;10.60;8.32;;;3.80;83.20;;;;;;5059318;28;20048;-61
2022/01/10 10:14:54;;;;;;;11.00;8.48;;;3.70;83.10;;;;;;5064163;28;20031;-59
2022/01/10 10:17:22;;;;;;;12.80;8.73;;;3.80;83.00;;;;;;5060080;28;20119;-60
2022/01/10 10:19:48;;;;;;;13.68;9.85;;;3.70;82.90;;;;;;5060320;28;20075;-60
2022/01/10 10:22:16;;;;;;;13.32;10.18;;;3.80;83.00;;;;;;5061642;28;20084;-60
2022/01/10 10:24:46;;;;;;;15.13;10.15;;;3.80;82.90;;;;;;5071836;28;20368;-60
2022/01/10 10:27:20;;;;;;;12.38;9.25;;;3.80;82.90;;;;;;5059828;28;20079;-60
2022/01/10 10:29:47;;;;;;;14.50;11.07;;;3.80;82.70;;;;;;5061844;28;20028;-60
2022/01/10 10:32:15;;;;;;;14.45;9.88;;;3.80;82.80;;;;;;5065988;28;20081;-60
2022/01/10 10:34:42;;;;;;;14.25;10.65;;;3.80;82.80;;;;;;5063891;28;20031;-61
2022/01/10 10:37:10;;;;;;;11.95;9.13;;;3.80;82.70;;;;;;5070694;28;20112;-61
2022/01/10 10:39:41;;;;;;;11.50;8.90;;;3.80;82.60;;;;;;5063269;28;20037;-60
2022/01/10 10:42:10;;;;;;;12.02;9.85;;;3.80;82.50;;;;;;5065535;28;20040;-60
2022/01/10 10:44:36;;;;;;;10.90;8.65;;;3.90;82.40;;;;;;5060060;28;20036;-60
2022/01/10 10:47:03;;;;;;;11.77;9.25;;;3.90;82.30;;;;;;5059733;28;20119;-60
2022/01/10 10:49:34;;;;;;;10.27;8.63;;;3.90;82.20;;;;;;5066114;28;20098;-60
2022/01/10 10:52:05;;;;;;;12.30;8.65;;;3.90;81.90;;;;;;5060565;28;20028;-61
2022/01/10 10:54:31;;;;;;;10.52;8.10;;;3.90;81.90;;;;;;5062522;28;20063;-60
2022/01/10 10:56:58;;;;;;;10.48;8.75;;;3.90;82.00;;;;;;5066837;28;20081;-60
2022/01/10 10:59:29;;;;;;;15.50;10.25;;;3.90;81.80;;;;;;5065732;28;20035;-60
2022/01/10 11:01:55;;;;;;;12.73;9.57;;;3.90;81.70;;;;;;5061962;28;20488;-60
2022/01/10 11:04:21;;;;;;;13.10;10.30;;;3.90;81.70;;;;;;5063643;28;20023;-60
2022/01/10 11:06:47;;;;;;;13.40;9.80;;;3.90;81.80;;;;;;5060758;28;20028;-60
2022/01/10 11:09:14;;;;;;;14.65;10.02;;;3.90;81.70;;;;;;5062046;28;20028;-60
2022/01/10 11:11:44;;;;;;;13.38;10.57;;;3.90;81.70;;;;;;5065396;28;20032;-60
2022/01/10 11:14:14;;;;;;;14.23;11.52;;;4.00;81.60;;;;;;5060283;28;20028;-65
2022/01/10 11:16:44;;;;;;;13.73;10.13;;;4.00;81.40;;;;;;5062129;28;20032;-59
2022/01/10 11:19:26;;;;;;;16.08;11.40;;;3.90;81.40;;;;;;5055611;28;20052;-60
2022/01/10 11:22:05;;;;;;;15.93;11.57;;;4.00;81.40;;;;;;5073784;28;20052;-60
2022/01/10 11:24:53;;;;;;;16.58;11.93;;;4.00;81.60;;;;;;5074733;28;20024;-60
2022/01/10 11:27:37;;;;;;;14.60;10.65;;;4.00;81.50;;;;;;5076604;28;20024;-60
2022/01/10 11:30:23;;;;;;;15.43;10.60;;;4.00;81.40;;;;;;5069631;28;20063;-60
2022/01/10 11:33:03;;;;;;;16.08;12.38;;;4.00;80.70;;;;;;5077381;28;20089;-60
2022/01/10 11:35:39;;;;;;;15.93;11.75;;;4.00;81.40;;;;;;5075515;28;20056;-60
2022/01/10 11:38:31;;;;;;;14.13;10.45;;;4.00;81.30;;;;;;5077791;28;20027;-60
2022/01/10 11:40:58;;;;;;;12.68;9.73;;;4.00;81.00;;;;;;5076675;28;20028;-60
2022/01/10 11:43:46;;;;;;;13.50;10.02;;;3.90;80.50;;;;;;5072289;28;20067;-60
2022/01/10 11:46:20;;;;;;;13.70;9.93;;;3.90;80.60;;;;;;5079153;28;20086;-60
2022/01/10 11:48:49;;;;;;;11.88;8.85;;;3.90;80.50;;;;;;5068818;28;20025;-60
2022/01/10 11:51:31;;;;;;;10.95;8.95;;;3.90;80.50;;;;;;5079467;28;20028;-59
2022/01/10 11:54:22;;;;;;;;;;;3.80;80.30;;;;;;5074564;28;20030;-60
2022/01/10 11:56:56;;;;;;;7.78;5.57;;;3.80;79.60;;;;;;5068783;28;19927;-60
2022/01/10 11:59:33;;;;;;;9.85;8.23;;;3.70;80.30;;;;;;5075488;28;20040;-59
2022/01/10 12:02:03;;;;;;;10.50;8.20;;;3.70;80.20;;;;;;5071352;28;20775;-62
2022/01/10 12:04:36;;;;;;;13.32;10.13;;;3.70;80.10;;;;;;5066029;28;20051;-60
2022/01/10 12:07:04;;;;;;;10.77;8.73;;;3.70;80.00;;;;;;5059780;28;20040;-60
2022/01/10 12:09:30;;;;;;;11.82;9.15;;;3.70;79.90;;;;;;5060806;28;20036;-60
2022/01/10 12:11:58;;;;;;;9.88;7.95;;;3.70;80.20;;;;;;5063287;28;20040;-61
2022/01/10 12:14:24;;;;;;;11.43;7.63;;;3.70;79.30;;;;;;5063212;28;20036;-61
2022/01/10 12:16:51;;;;;;;8.82;6.93;;;3.70;78.90;;;;;;5067562;28;20459;-60
2022/01/10 12:19:18;;;;;;;9.65;7.13;;;3.70;78.80;;;;;;5069420;28;20041;-63
2022/01/10 12:21:45;;;;;;;9.32;7.47;;;3.70;78.70;;;;;;5071218;28;20048;-61
2022/01/10 12:24:11;;;;;;;10.35;7.95;;;3.70;78.80;;;;;;5066255;28;20114;-61
2022/01/10 12:26:38;;;;;;;9.52;7.28;;;3.60;78.60;;;;;;5057658;28;20035;-60
2022/01/10 12:29:06;;;;;;;9.25;7.35;;;3.60;78.70;;;;;;5064238;28;20043;-60
2022/01/10 12:31:34;;;;;;;10.35;8.15;;;3.60;78.50;;;;;;5067089;28;20064;-60
2022/01/10 12:34:00;;;;;;;11.02;8.68;;;3.60;78.50;;;;;;5068472;28;20036;-58
2022/01/10 12:36:28;;;;;;;10.82;8.38;;;3.60;78.50;;;;;;5066277;28;20108;-60
2022/01/10 12:39:01;;;;;;;11.05;8.48;;;3.60;78.50;;;;;;5062605;28;21057;-59
2022/01/10 12:41:28;;;;;;;11.13;8.40;;;3.60;78.60;;;;;;5071874;28;20028;-59
2022/01/10 12:43:54;;;;;;;10.25;8.05;;;3.60;78.50;;;;;;5051308;28;20050;-60
2022/01/10 12:46:21;;;;;;;12.10;9.02;;;3.50;78.10;;;;;;5065146;28;20436;-59
2022/01/10 12:48:50;;;;;;;10.15;8.02;;;3.50;78.10;;;;;;5075493;28;20036;-60
2022/01/10 12:51:17;;;;;;;10.43;8.30;;;3.50;78.10;;;;;;5066800;28;20549;-58
2022/01/10 12:53:48;;;;;;;10.77;9.07;;;3.50;78.20;;;;;;5066279;28;20086;-59
2022/01/10 12:56:18;;;;;;;12.73;9.27;;;3.60;78.10;;;;;;5063333;28;20032;-59
2022/01/10 12:58:44;;;;;;;13.23;9.70;;;3.50;78.20;;;;;;5066669;28;20028;-60
2022/01/10 13:01:12;;;;;;;13.27;10.05;;;3.50;78.10;;;;;;5059572;28;20032;-59